Terminal Aerodrome Forecast
Issued by NWS Charleston, WV

Home | Current Version | Previous Version | Text Only | Print | Product List | Glossary On
Versions: 1 2 3 4 5 6 7 8 9 10 11 12 13 14 15 16 17 18 19 20 21 22 23 24 25 26 27 28 29 30
000
FTUS41 KRLX 311100
TAFHTS
TAF
KHTS 311120Z 3112/0112 00000KT 6SM BR HZ SCT001
     FM311400 00000KT P6SM SCT040
     FM010600 00000KT P6SM FEW060
     FM011100 00000KT 4SM BR SCT060=

USA.gov is the U.S. government's official web portal to all federal, state and local government web resources and services.